Date,TemperatureHighF,TemperatureAvgF,TemperatureLowF,DewpointHighF,DewpointAvgF,DewpointLowF,HumidityHigh,HumidityAvg,HumidityLow,PressureMaxIn,PressureMinIn,WindSpeedMaxMPH,WindSpeedAvgMPH,GustSpeedMaxMPH,PrecipitationSumIn
2012-12-1,59.6,47.5,27.5,54.3,44.0,26.0,97,88,80,30.11,29.84,14,7,17,0.04
2012-12-2,57.3,52.0,44.1,54.3,50.5,43.1,98,95,89,30.01,29.84,10,2,13,0.01
2012-12-3,69.3,59.3,46.2,63.2,55.5,42.6,100,88,75,29.98,29.71,22,10,31,0.04
2012-12-4,59.9,46.2,37.8,42.7,36.1,29.2,92,70,39,30.33,29.95,13,4,17,0.00
2012-12-5,43.9,34.4,26.3,32.2,25.3,20.4,84,70,43,30.45,30.16,15,6,20,0.00
2012-12-6,51.1,43.2,36.0,41.1,36.6,31.4,93,78,65,30.16,29.89,14,7,17,0.05
2012-12-7,42.8,40.2,36.8,41.1,37.3,34.9,97,89,84,29.96,29.88,11,4,13,0.17
2012-12-8,40.4,36.3,34.0,36.2,33.8,32.5,96,91,81,30.06,29.88,15,5,21,0.03
2012-12-9,39.9,36.6,27.4,38.9,34.8,24.1,97,93,88,30.02,29.76,18,8,24,0.09
2012-12-10,27.5,26.0,20.8,25.2,22.9,18.4,92,88,85,30.03,29.82,18,9,26,0.00
2012-12-11,35.4,25.5,16.8,25.9,20.2,14.6,93,81,66,30.05,30.01,14,7,20,0.00
2012-12-12,47.5,38.8,34.3,30.1,27.0,25.5,74,63,47,30.22,30.05,16,8,21,0.00
2012-12-13,49.8,39.3,30.5,30.7,28.0,25.0,85,65,46,30.19,30.08,20,9,26,0.00
2012-12-14,50.4,40.1,27.5,39.3,32.4,24.0,90,75,54,30.17,29.95,13,5,14,0.18
2012-12-15,49.3,45.2,40.3,48.8,43.8,37.7,98,95,86,29.95,29.51,22,10,27,0.48
2012-12-16,47.2,39.8,35.1,45.6,37.5,33.3,96,91,87,29.76,29.58,14,6,17,0.00
2012-12-17,35.2,32.4,30.4,33.6,30.7,28.9,97,94,88,29.77,29.69,8,2,12,0.00
2012-12-18,44.3,36.5,31.2,39.9,33.9,29.1,95,90,81,29.90,29.54,20,9,25,0.00
2012-12-19,37.8,35.3,33.1,36.8,33.1,30.7,96,92,89,30.05,29.61,19,5,24,0.20
2012-12-20,40.4,32.4,14.8,39.9,31.6,13.1,98,97,93,29.93,29.15,25,15,35,1.07
2012-12-21,21.2,16.5,10.8,18.2,13.3,8.0,94,87,80,30.29,29.80,24,13,31,0.00
2012-12-22,29.2,19.4,7.0,24.8,16.1,4.7,94,87,78,30.30,29.98,7,2,10,0.00
2012-12-23,26.2,20.5,11.1,24.4,18.0,9.2,95,90,81,30.08,29.97,11,4,13,0.00
2012-12-24,28.3,25.2,22.9,26.3,23.1,20.4,94,92,89,30.18,29.91,14,5,16,0.00
2012-12-25,23.4,19.5,13.1,20.9,15.4,10.2,91,84,78,30.39,30.18,9,4,15,0.00
2012-12-26,27.6,24.7,21.3,23.0,20.8,17.1,89,85,80,30.25,30.10,16,7,20,0.00
2012-12-27,28.3,23.1,12.6,26.2,19.8,9.5,94,87,78,30.26,30.12,9,2,12,0.00
2012-12-28,31.1,28.8,26.1,28.0,26.3,24.5,95,90,88,30.12,29.93,9,3,12,0.00
2012-12-29,27.3,21.0,9.1,26.1,18.1,6.7,95,88,85,30.30,29.93,18,8,22,0.00
2012-12-30,34.1,21.0,7.0,27.7,17.1,4.9,93,85,74,30.38,30.07,18,6,25,0.00
2012-12-31,34.5,25.2,17.7,27.7,20.1,12.7,86,81,74,30.21,30.06,16,8,20,0.00